sensor_id;sensor_type;location;lat;lon;timestamp;pressure;altitude;pressure_sealevel;temperature;humidity
7297;BME280;40758;54.038;11.684;2023-09-18T00:00:49;101104.44;;;16.40;100.00
7297;BME280;40758;54.038;11.684;2023-09-18T00:03:20;101101.88;;;16.33;100.00
7297;BME280;40758;54.038;11.684;2023-09-18T00:05:47;101103.69;;;16.28;100.00
7297;BME280;40758;54.038;11.684;2023-09-18T00:08:18;101099.28;;;16.27;100.00
7297;BME280;40758;54.038;11.684;2023-09-18T00:10:47;101089.34;;;16.20;100.00
7297;BME280;40758;54.038;11.684;2023-09-18T00:13:15;101092.91;;;16.38;100.00
7297;BME280;40758;54.038;11.684;2023-09-18T00:15:43;101094.28;;;16.40;100.00
7297;BME280;40758;54.038;11.684;2023-09-18T00:18:16;101082.84;;;16.43;100.00
7297;BME280;40758;54.038;11.684;2023-09-18T00:20:43;101078.72;;;16.41;100.00
7297;BME280;40758;54.038;11.684;2023-09-18T00:23:10;101081.44;;;16.41;100.00
7297;BME280;40758;54.038;11.684;2023-09-18T00:25:38;101074.53;;;16.38;100.00
7297;BME280;40758;54.038;11.684;2023-09-18T00:28:07;101065.41;;;16.33;100.00
7297;BME280;40758;54.038;11.684;2023-09-18T00:30:34;101059.78;;;16.22;100.00
7297;BME280;40758;54.038;11.684;2023-09-18T00:33:01;101047.09;;;16.16;100.00
7297;BME280;40758;54.038;11.684;2023-09-18T00:35:28;101060.44;;;16.30;100.00
7297;BME280;40758;54.038;11.684;2023-09-18T00:37:55;101066.41;;;16.27;100.00
7297;BME280;40758;54.038;11.684;2023-09-18T00:40:22;101071.91;;;16.27;100.00
7297;BME280;40758;54.038;11.684;2023-09-18T00:42:49;101055.63;;;16.20;100.00
7297;BME280;40758;54.038;11.684;2023-09-18T00:45:19;101046.69;;;16.25;100.00
7297;BME280;40758;54.038;11.684;2023-09-18T00:47:46;101053.16;;;16.18;100.00
7297;BME280;40758;54.038;11.684;2023-09-18T00:50:14;101039.88;;;16.10;100.00
7297;BME280;40758;54.038;11.684;2023-09-18T00:52:41;101025.53;;;16.03;100.00
7297;BME280;40758;54.038;11.684;2023-09-18T00:55:09;100983.63;;;15.69;100.00
7297;BME280;40758;54.038;11.684;2023-09-18T00:57:36;101006.78;;;15.78;100.00
7297;BME280;40758;54.038;11.684;2023-09-18T01:00:03;101015.56;;;15.80;100.00
7297;BME280;40758;54.038;11.684;2023-09-18T01:02:32;101012.59;;;15.82;100.00
7297;BME280;40758;54.038;11.684;2023-09-18T01:04:59;101002.88;;;15.74;100.00
7297;BME280;40758;54.038;11.684;2023-09-18T01:07:28;100999.84;;;15.59;100.00
7297;BME280;40758;54.038;11.684;2023-09-18T01:09:56;100994.75;;;15.62;100.00
7297;BME280;40758;54.038;11.684;2023-09-18T01:12:44;101002.41;;;15.77;100.00
7297;BME280;40758;54.038;11.684;2023-09-18T01:15:17;101002.63;;;15.76;100.00
7297;BME280;40758;54.038;11.684;2023-09-18T01:17:48;100965.78;;;15.50;100.00
7297;BME280;40758;54.038;11.684;2023-09-18T01:20:15;100971.50;;;15.48;100.00
7297;BME280;40758;54.038;11.684;2023-09-18T01:22:42;100983.31;;;15.65;100.00
7297;BME280;40758;54.038;11.684;2023-09-18T01:25:10;100981.47;;;15.71;100.00
7297;BME280;40758;54.038;11.684;2023-09-18T01:27:36;100985.94;;;15.60;100.00
7297;BME280;40758;54.038;11.684;2023-09-18T01:30:03;100987.06;;;15.48;100.00
7297;BME280;40758;54.038;11.684;2023-09-18T01:32:34;100987.50;;;15.56;100.00
7297;BME280;40758;54.038;11.684;2023-09-18T01:35:04;100972.38;;;15.65;100.00
7297;BME280;40758;54.038;11.684;2023-09-18T01:37:34;100976.00;;;15.54;100.00
7297;BME280;40758;54.038;11.684;2023-09-18T01:40:05;100971.91;;;15.57;100.00
7297;BME280;40758;54.038;11.684;2023-09-18T01:42:36;100972.25;;;15.43;100.00
7297;BME280;40758;54.038;11.684;2023-09-18T01:45:03;100959.72;;;15.31;100.00
7297;BME280;40758;54.038;11.684;2023-09-18T01:47:32;100976.91;;;15.43;100.00
7297;BME280;40758;54.038;11.684;2023-09-18T01:50:03;100973.91;;;15.44;100.00
7297;BME280;40758;54.038;11.684;2023-09-18T01:52:34;100967.34;;;15.29;100.00
7297;BME280;40758;54.038;11.684;2023-09-18T01:55:01;100969.44;;;15.38;100.00
7297;BME280;40758;54.038;11.684;2023-09-18T01:57:30;100958.22;;;15.23;100.00
7297;BME280;40758;54.038;11.684;2023-09-18T01:59:57;100959.47;;;15.32;100.00
7297;BME280;40758;54.038;11.684;2023-09-18T02:02:24;100957.56;;;15.33;100.00
7297;BME280;40758;54.038;11.684;2023-09-18T02:05:11;100965.34;;;15.24;100.00
7297;BME280;40758;54.038;11.684;2023-09-18T02:07:41;100968.75;;;15.31;100.00
7297;BME280;40758;54.038;11.684;2023-09-18T02:10:09;100957.56;;;15.33;100.00
7297;BME280;40758;54.038;11.684;2023-09-18T02:12:38;100934.94;;;15.21;100.00
7297;BME280;40758;54.038;11.684;2023-09-18T02:15:06;100950.03;;;15.40;100.00
7297;BME280;40758;54.038;11.684;2023-09-18T02:17:33;100948.94;;;15.41;100.00
7297;BME280;40758;54.038;11.684;2023-09-18T02:20:01;100945.38;;;15.40;100.00
7297;BME280;40758;54.038;11.684;2023-09-18T02:22:37;100897.72;;;15.20;100.00
7297;BME280;40758;54.038;11.684;2023-09-18T02:25:04;100932.13;;;15.32;100.00
7297;BME280;40758;54.038;11.684;2023-09-18T02:27:31;100935.94;;;15.31;100.00
7297;BME280;40758;54.038;11.684;2023-09-18T02:29:58;100923.75;;;15.39;100.00
7297;BME280;40758;54.038;11.684;2023-09-18T02:32:24;100920.00;;;15.45;100.00
7297;BME280;40758;54.038;11.684;2023-09-18T02:34:52;100911.72;;;15.40;100.00
7297;BME280;40758;54.038;11.684;2023-09-18T02:37:18;100911.16;;;15.38;100.00
7297;BME280;40758;54.038;11.684;2023-09-18T02:39:45;100868.19;;;15.22;100.00
7297;BME280;40758;54.038;11.684;2023-09-18T02:42:12;100897.13;;;15.34;100.00
7297;BME280;40758;54.038;11.684;2023-09-18T02:44:38;100884.94;;;15.25;100.00
7297;BME280;40758;54.038;11.684;2023-09-18T02:47:06;100880.63;;;15.29;100.00
7297;BME280;40758;54.038;11.684;2023-09-18T02:49:33;100879.78;;;15.29;100.00
7297;BME280;40758;54.038;11.684;2023-09-18T02:52:00;100881.13;;;15.26;100.00
7297;BME280;40758;54.038;11.684;2023-09-18T02:54:26;100872.50;;;15.17;100.00
7297;BME280;40758;54.038;11.684;2023-09-18T02:56:53;100876.50;;;15.27;100.00
7297;BME280;40758;54.038;11.684;2023-09-18T02:59:20;100873.59;;;15.16;100.00
7297;BME280;40758;54.038;11.684;2023-09-18T03:01:47;100873.50;;;15.28;100.00
7297;BME280;40758;54.038;11.684;2023-09-18T03:04:14;100875.50;;;15.33;100.00
7297;BME280;40758;54.038;11.684;2023-09-18T03:06:40;100843.31;;;15.06;100.00
7297;BME280;40758;54.038;11.684;2023-09-18T03:09:07;100863.06;;;15.08;100.00
7297;BME280;40758;54.038;11.684;2023-09-18T03:11:34;100867.28;;;15.16;100.00
7297;BME280;40758;54.038;11.684;2023-09-18T03:14:01;100847.72;;;15.07;100.00
7297;BME280;40758;54.038;11.684;2023-09-18T03:16:28;100847.97;;;15.23;100.00
7297;BME280;40758;54.038;11.684;2023-09-18T03:18:56;100839.50;;;15.07;100.00
7297;BME280;40758;54.038;11.684;2023-09-18T03:21:23;100852.97;;;15.09;100.00
7297;BME280;40758;54.038;11.684;2023-09-18T03:23:49;100839.50;;;15.07;100.00
7297;BME280;40758;54.038;11.684;2023-09-18T03:26:16;100844.00;;;15.13;100.00
7297;BME280;40758;54.038;11.684;2023-09-18T03:28:43;100821.78;;;15.10;100.00
7297;BME280;40758;54.038;11.684;2023-09-18T03:31:10;100827.44;;;15.20;100.00
7297;BME280;40758;54.038;11.684;2023-09-18T03:33:38;100819.97;;;15.15;100.00
7297;BME280;40758;54.038;11.684;2023-09-18T03:36:05;100803.38;;;15.05;100.00
7297;BME280;40758;54.038;11.684;2023-09-18T03:38:32;100790.47;;;15.01;100.00
7297;BME280;40758;54.038;11.684;2023-09-18T03:41:02;100807.22;;;15.04;100.00
7297;BME280;40758;54.038;11.684;2023-09-18T03:43:28;100814.06;;;15.24;100.00
7297;BME280;40758;54.038;11.684;2023-09-18T03:46:03;100828.34;;;15.26;100.00
7297;BME280;40758;54.038;11.684;2023-09-18T03:48:29;100778.53;;;15.07;100.00
7297;BME280;40758;54.038;11.684;2023-09-18T03:51:05;100809.69;;;15.23;100.00
7297;BME280;40758;54.038;11.684;2023-09-18T03:53:32;100803.38;;;15.22;100.00
7297;BME280;40758;54.038;11.684;2023-09-18T03:56:00;100795.34;;;15.15;100.00
7297;BME280;40758;54.038;11.684;2023-09-18T03:58:29;100787.97;;;14.99;100.00
7297;BME280;40758;54.038;11.684;2023-09-18T04:01:00;100768.44;;;14.90;100.00
7297;BME280;40758;54.038;11.684;2023-09-18T04:03:30;100779.69;;;15.11;100.00
7297;BME280;40758;54.038;11.684;2023-09-18T04:05:59;100783.31;;;15.16;100.00
7297;BME280;40758;54.038;11.684;2023-09-18T04:08:26;100772.72;;;15.20;100.00
7297;BME280;40758;54.038;11.684;2023-09-18T04:10:54;100776.44;;;15.31;100.00
7297;BME280;40758;54.038;11.684;2023-09-18T04:13:22;100783.94;;;15.40;100.00
7297;BME280;40758;54.038;11.684;2023-09-18T04:15:49;100774.00;;;15.34;100.00
7297;BME280;40758;54.038;11.684;2023-09-18T04:18:18;100775.72;;;15.40;100.00
7297;BME280;40758;54.038;11.684;2023-09-18T04:20:45;100774.16;;;15.44;100.00
7297;BME280;40758;54.038;11.684;2023-09-18T04:23:27;100764.53;;;15.42;100.00
7297;BME280;40758;54.038;11.684;2023-09-18T04:25:55;100740.63;;;15.32;100.00
7297;BME280;40758;54.038;11.684;2023-09-18T04:28:25;100759.06;;;15.42;100.00
7297;BME280;40758;54.038;11.684;2023-09-18T04:30:51;100754.03;;;15.34;100.00
7297;BME280;40758;54.038;11.684;2023-09-18T04:33:21;100755.03;;;15.28;100.00
7297;BME280;40758;54.038;11.684;2023-09-18T04:35:48;100740.38;;;15.17;100.00
7297;BME280;40758;54.038;11.684;2023-09-18T04:38:15;100746.69;;;15.17;100.00
7297;BME280;40758;54.038;11.684;2023-09-18T04:40:46;100744.38;;;15.09;100.00
7297;BME280;40758;54.038;11.684;2023-09-18T04:43:13;100746.69;;;15.17;100.00
7297;BME280;40758;54.038;11.684;2023-09-18T04:45:44;100734.28;;;15.10;100.00
7297;BME280;40758;54.038;11.684;2023-09-18T04:48:11;100734.28;;;15.10;100.00
7297;BME280;40758;54.038;11.684;2023-09-18T04:50:38;100727.81;;;14.99;100.00
7297;BME280;40758;54.038;11.684;2023-09-18T04:53:05;100720.56;;;14.88;100.00
7297;BME280;40758;54.038;11.684;2023-09-18T04:55:32;100726.66;;;14.95;100.00
7297;BME280;40758;54.038;11.684;2023-09-18T04:57:58;100722.78;;;15.08;100.00
7297;BME280;40758;54.038;11.684;2023-09-18T05:00:26;100720.22;;;15.23;100.00
7297;BME280;40758;54.038;11.684;2023-09-18T05:02:57;100717.91;;;15.32;100.00
7297;BME280;40758;54.038;11.684;2023-09-18T05:05:27;100716.75;;;15.28;100.00
7297;BME280;40758;54.038;11.684;2023-09-18T05:07:56;100713.69;;;15.24;100.00
7297;BME280;40758;54.038;11.684;2023-09-18T05:10:24;100705.94;;;15.38;100.00
7297;BME280;40758;54.038;11.684;2023-09-18T05:12:50;100697.66;;;15.33;100.00
7297;BME280;40758;54.038;11.684;2023-09-18T05:15:25;100693.22;;;15.49;100.00
7297;BME280;40758;54.038;11.684;2023-09-18T05:18:01;100674.00;;;15.43;100.00
7297;BME280;40758;54.038;11.684;2023-09-18T05:20:31;100685.78;;;15.44;100.00
7297;BME280;40758;54.038;11.684;2023-09-18T05:22:58;100699.84;;;15.75;100.00
7297;BME280;40758;54.038;11.684;2023-09-18T05:25:27;100684.25;;;15.75;100.00
7297;BME280;40758;54.038;11.684;2023-09-18T05:27:56;100676.22;;;15.68;100.00
7297;BME280;40758;54.038;11.684;2023-09-18T05:30:28;100677.59;;;15.93;100.00
7297;BME280;40758;54.038;11.684;2023-09-18T05:32:58;100680.31;;;15.93;100.00
7297;BME280;40758;54.038;11.684;2023-09-18T05:35:32;100666.03;;;15.86;100.00
7297;BME280;40758;54.038;11.684;2023-09-18T05:37:59;100684.31;;;16.07;100.00
7297;BME280;40758;54.038;11.684;2023-09-18T05:40:26;100679.75;;;16.18;100.00
7297;BME280;40758;54.038;11.684;2023-09-18T05:42:56;100681.63;;;16.12;100.00
7297;BME280;40758;54.038;11.684;2023-09-18T05:45:24;100663.31;;;16.18;100.00
7297;BME280;40758;54.038;11.684;2023-09-18T05:47:51;100667.94;;;16.17;100.00
7297;BME280;40758;54.038;11.684;2023-09-18T05:50:20;100651.00;;;16.20;100.00
7297;BME280;40758;54.038;11.684;2023-09-18T05:52:47;100637.34;;;16.26;100.00
7297;BME280;40758;54.038;11.684;2023-09-18T05:55:15;100647.34;;;16.42;100.00
7297;BME280;40758;54.038;11.684;2023-09-18T05:57:42;100639.38;;;16.35;100.00
7297;BME280;40758;54.038;11.684;2023-09-18T06:00:10;100635.00;;;16.39;100.00
7297;BME280;40758;54.038;11.684;2023-09-18T06:02:40;100630.41;;;16.50;100.00
7297;BME280;40758;54.038;11.684;2023-09-18T06:05:07;100636.25;;;16.59;100.00
7297;BME280;40758;54.038;11.684;2023-09-18T06:07:38;100642.31;;;16.66;100.00
7297;BME280;40758;54.038;11.684;2023-09-18T06:10:05;100629.84;;;16.85;100.00
7297;BME280;40758;54.038;11.684;2023-09-18T06:12:32;100618.19;;;17.05;100.00
7297;BME280;40758;54.038;11.684;2023-09-18T06:14:59;100592.66;;;17.10;100.00
7297;BME280;40758;54.038;11.684;2023-09-18T06:17:26;100600.41;;;17.23;100.00
7297;BME280;40758;54.038;11.684;2023-09-18T06:19:53;100600.19;;;17.35;100.00
7297;BME280;40758;54.038;11.684;2023-09-18T06:22:20;100606.50;;;17.40;100.00
7297;BME280;40758;54.038;11.684;2023-09-18T06:24:46;100605.41;;;17.41;100.00
7297;BME280;40758;54.038;11.684;2023-09-18T06:27:13;100612.03;;;17.45;100.00
7297;BME280;40758;54.038;11.684;2023-09-18T06:29:40;100606.25;;;17.52;100.00
7297;BME280;40758;54.038;11.684;2023-09-18T06:32:09;100601.84;;;17.51;100.00
7297;BME280;40758;54.038;11.684;2023-09-18T06:34:35;100590.59;;;17.47;100.00
7297;BME280;40758;54.038;11.684;2023-09-18T06:37:03;100598.28;;;17.50;100.00
7297;BME280;40758;54.038;11.684;2023-09-18T06:39:30;100575.50;;;17.40;100.00
7297;BME280;40758;54.038;11.684;2023-09-18T06:41:57;100592.53;;;17.52;100.00
7297;BME280;40758;54.038;11.684;2023-09-18T06:44:25;100591.19;;;17.60;100.00
7297;BME280;40758;54.038;11.684;2023-09-18T06:46:51;100596.41;;;17.71;100.00
7297;BME280;40758;54.038;11.684;2023-09-18T06:49:19;100585.22;;;17.93;100.00
7297;BME280;40758;54.038;11.684;2023-09-18T06:51:47;100574.44;;;18.43;100.00
7297;BME280;40758;54.038;11.684;2023-09-18T06:54:13;100567.19;;;18.98;100.00
7297;BME280;40758;54.038;11.684;2023-09-18T06:56:40;100565.38;;;19.32;100.00
7297;BME280;40758;54.038;11.684;2023-09-18T06:59:08;100571.00;;;19.56;100.00
7297;BME280;40758;54.038;11.684;2023-09-18T07:01:35;100548.78;;;19.87;100.00
7297;BME280;40758;54.038;11.684;2023-09-18T07:04:02;100541.34;;;20.16;100.00
7297;BME280;40758;54.038;11.684;2023-09-18T07:06:31;100527.78;;;20.54;100.00
7297;BME280;40758;54.038;11.684;2023-09-18T07:08:57;100540.84;;;20.91;100.00
7297;BME280;40758;54.038;11.684;2023-09-18T07:11:24;100508.28;;;20.93;100.00
7297;BME280;40758;54.038;11.684;2023-09-18T07:13:51;100522.69;;;21.28;100.00
7297;BME280;40758;54.038;11.684;2023-09-18T07:16:18;100515.41;;;21.37;100.00
7297;BME280;40758;54.038;11.684;2023-09-18T07:18:45;100512.97;;;21.68;100.00
7297;BME280;40758;54.038;11.684;2023-09-18T07:21:12;100513.78;;;21.88;100.00
7297;BME280;40758;54.038;11.684;2023-09-18T07:23:40;100512.59;;;22.08;100.00
7297;BME280;40758;54.038;11.684;2023-09-18T07:26:07;100505.69;;;22.24;100.00
7297;BME280;40758;54.038;11.684;2023-09-18T07:28:34;100511.13;;;22.29;100.00
7297;BME280;40758;54.038;11.684;2023-09-18T07:31:08;100508.38;;;22.29;100.00
7297;BME280;40758;54.038;11.684;2023-09-18T07:33:35;100498.03;;;22.48;100.00
7297;BME280;40758;54.038;11.684;2023-09-18T07:36:02;100488.00;;;22.39;100.00
7297;BME280;40758;54.038;11.684;2023-09-18T07:38:30;100487.59;;;22.45;100.00
7297;BME280;40758;54.038;11.684;2023-09-18T07:40:58;100488.50;;;22.82;100.00
7297;BME280;40758;54.038;11.684;2023-09-18T07:43:25;100482.16;;;22.95;100.00
7297;BME280;40758;54.038;11.684;2023-09-18T07:45:53;100480.56;;;23.17;100.00
7297;BME280;40758;54.038;11.684;2023-09-18T07:48:24;100474.25;;;22.89;100.00
7297;BME280;40758;54.038;11.684;2023-09-18T07:50:50;100470.34;;;23.03;100.00
7297;BME280;40758;54.038;11.684;2023-09-18T07:53:18;100462.75;;;23.09;100.00
7297;BME280;40758;54.038;11.684;2023-09-18T07:55:47;100460.47;;;23.11;100.00
7297;BME280;40758;54.038;11.684;2023-09-18T07:58:14;100470.28;;;23.31;100.00
7297;BME280;40758;54.038;11.684;2023-09-18T08:00:40;100462.75;;;23.09;100.00
7297;BME280;40758;54.038;11.684;2023-09-18T08:03:07;100469.50;;;23.17;100.00
7297;BME280;40758;54.038;11.684;2023-09-18T08:05:34;100468.28;;;23.09;100.00
7297;BME280;40758;54.038;11.684;2023-09-18T08:08:01;100463.63;;;22.68;100.00
7297;BME280;40758;54.038;11.684;2023-09-18T08:10:31;100474.66;;;22.54;100.00
7297;BME280;40758;54.038;11.684;2023-09-18T08:12:57;100460.75;;;22.73;100.00
7297;BME280;40758;54.038;11.684;2023-09-18T08:15:24;100449.41;;;23.11;100.00
7297;BME280;40758;54.038;11.684;2023-09-18T08:17:51;100445.53;;;23.57;100.00
7297;BME280;40758;54.038;11.684;2023-09-18T08:20:20;100451.31;;;23.92;100.00
7297;BME280;40758;54.038;11.684;2023-09-18T08:22:47;100444.13;;;24.22;100.00
7297;BME280;40758;54.038;11.684;2023-09-18T08:25:15;100439.22;;;24.19;100.00
7297;BME280;40758;54.038;11.684;2023-09-18T08:27:42;100435.78;;;24.13;100.00
7297;BME280;40758;54.038;11.684;2023-09-18T08:30:12;100427.41;;;24.04;100.00
7297;BME280;40758;54.038;11.684;2023-09-18T08:32:41;100423.03;;;24.12;100.00
7297;BME280;40758;54.038;11.684;2023-09-18T08:35:10;100416.81;;;24.37;100.00
7297;BME280;40758;54.038;11.684;2023-09-18T08:37:37;100420.13;;;24.57;100.00
7297;BME280;40758;54.038;11.684;2023-09-18T08:40:05;100414.91;;;24.55;100.00
7297;BME280;40758;54.038;11.684;2023-09-18T08:42:56;100403.50;;;24.83;100.00
7297;BME280;40758;54.038;11.684;2023-09-18T08:45:38;100410.22;;;24.90;100.00
7297;BME280;40758;54.038;11.684;2023-09-18T08:48:07;100407.91;;;24.84;100.00
7297;BME280;40758;54.038;11.684;2023-09-18T08:50:34;100405.28;;;24.53;100.00
7297;BME280;40758;54.038;11.684;2023-09-18T08:53:03;100397.25;;;24.51;100.00
7297;BME280;40758;54.038;11.684;2023-09-18T08:55:33;100411.63;;;24.53;100.00
7297;BME280;40758;54.038;11.684;2023-09-18T08:58:03;100405.63;;;24.29;100.00
7297;BME280;40758;54.038;11.684;2023-09-18T09:00:30;100410.44;;;24.06;100.00
7297;BME280;40758;54.038;11.684;2023-09-18T09:02:56;100404.22;;;24.00;100.00
7297;BME280;40758;54.038;11.684;2023-09-18T09:05:23;100405.78;;;23.84;100.00
7297;BME280;40758;54.038;11.684;2023-09-18T09:07:50;100410.69;;;23.87;100.00
7297;BME280;40758;54.038;11.684;2023-09-18T09:10:17;100405.72;;;24.46;100.00
7297;BME280;40758;54.038;11.684;2023-09-18T09:12:58;100393.25;;;25.01;100.00
7297;BME280;40758;54.038;11.684;2023-09-18T09:15:27;100372.06;;;25.78;100.00
7297;BME280;40758;54.038;11.684;2023-09-18T09:18:06;100372.22;;;25.72;100.00
7297;BME280;40758;54.038;11.684;2023-09-18T09:20:35;100359.34;;;25.59;100.00
7297;BME280;40758;54.038;11.684;2023-09-18T09:23:08;100353.38;;;25.23;100.00
7297;BME280;40758;54.038;11.684;2023-09-18T09:25:35;100361.03;;;24.74;100.00
7297;BME280;40758;54.038;11.684;2023-09-18T09:28:03;100359.56;;;24.59;100.00
7297;BME280;40758;54.038;11.684;2023-09-18T09:30:33;100342.91;;;24.59;100.00
7297;BME280;40758;54.038;11.684;2023-09-18T09:33:00;100322.25;;;24.25;100.00
7297;BME280;40758;54.038;11.684;2023-09-18T09:35:35;100321.50;;;24.42;100.00
7297;BME280;40758;54.038;11.684;2023-09-18T09:38:11;100322.81;;;24.36;100.00
7297;BME280;40758;54.038;11.684;2023-09-18T09:40:42;100313.56;;;24.09;100.00
7297;BME280;40758;54.038;11.684;2023-09-18T09:43:12;100315.66;;;24.04;100.00
7297;BME280;40758;54.038;11.684;2023-09-18T09:45:46;100312.16;;;23.81;100.00
7297;BME280;40758;54.038;11.684;2023-09-18T09:48:12;100302.06;;;23.85;100.00
7297;BME280;40758;54.038;11.684;2023-09-18T09:50:44;100302.41;;;23.92;100.00
7297;BME280;40758;54.038;11.684;2023-09-18T09:53:15;100302.09;;;23.94;100.00
7297;BME280;40758;54.038;11.684;2023-09-18T09:55:42;100281.91;;;24.10;100.00
7297;BME280;40758;54.038;11.684;2023-09-18T09:58:10;100288.19;;;24.42;100.00
7297;BME280;40758;54.038;11.684;2023-09-18T10:00:41;100301.59;;;24.66;100.00
7297;BME280;40758;54.038;11.684;2023-09-18T10:03:14;100295.88;;;24.88;100.00
7297;BME280;40758;54.038;11.684;2023-09-18T10:05:44;100290.63;;;24.87;100.00
7297;BME280;40758;54.038;11.684;2023-09-18T10:08:12;100297.31;;;25.03;100.00
7297;BME280;40758;54.038;11.684;2023-09-18T10:10:49;100301.59;;;25.09;100.00
7297;BME280;40758;54.038;11.684;2023-09-18T10:15:56;100287.69;;;25.09;100.00
7297;BME280;40758;54.038;11.684;2023-09-18T10:18:27;100288.03;;;24.99;100.00
7297;BME280;40758;54.038;11.684;2023-09-18T10:21:10;100282.47;;;24.99;100.00
7297;BME280;40758;54.038;11.684;2023-09-18T10:23:59;100276.59;;;25.09;100.00
7297;BME280;40758;54.038;11.684;2023-09-18T10:26:27;100267.84;;;25.37;100.00
7297;BME280;40758;54.038;11.684;2023-09-18T10:28:56;100274.59;;;25.27;100.00
7297;BME280;40758;54.038;11.684;2023-09-18T10:31:26;100274.63;;;25.57;100.00
7297;BME280;40758;54.038;11.684;2023-09-18T10:33:58;100275.09;;;26.26;100.00
7297;BME280;40758;54.038;11.684;2023-09-18T10:36:27;100259.22;;;27.93;100.00
7297;BME280;40758;54.038;11.684;2023-09-18T10:39:00;100279.97;;;28.44;100.00
7297;BME280;40758;54.038;11.684;2023-09-18T10:41:27;100247.31;;;27.47;100.00
7297;BME280;40758;54.038;11.684;2023-09-18T10:43:54;100281.00;;;26.55;100.00
7297;BME280;40758;54.038;11.684;2023-09-18T10:46:27;100276.38;;;26.08;100.00
7297;BME280;40758;54.038;11.684;2023-09-18T10:48:54;100270.63;;;25.37;100.00
7297;BME280;40758;54.038;11.684;2023-09-18T10:51:23;100233.47;;;24.86;100.00
7297;BME280;40758;54.038;11.684;2023-09-18T10:53:51;100275.94;;;24.86;100.00
7297;BME280;40758;54.038;11.684;2023-09-18T10:56:22;100270.41;;;24.52;100.00
7297;BME280;40758;54.038;11.684;2023-09-18T10:58:57;100280.69;;;24.51;100.00
7297;BME280;40758;54.038;11.684;2023-09-18T11:01:24;100288.03;;;24.38;100.00
7297;BME280;40758;54.038;11.684;2023-09-18T11:03:58;100268.72;;;24.33;100.00
7297;BME280;40758;54.038;11.684;2023-09-18T11:06:26;100292.59;;;24.52;100.00
7297;BME280;40758;54.038;11.684;2023-09-18T11:09:02;100280.69;;;24.68;100.00
7297;BME280;40758;54.038;11.684;2023-09-18T11:11:31;100264.69;;;24.83;100.00
7297;BME280;40758;54.038;11.684;2023-09-18T11:14:02;100277.22;;;25.24;100.00
7297;BME280;40758;54.038;11.684;2023-09-18T11:16:36;100281.97;;;24.97;100.00
7297;BME280;40758;54.038;11.684;2023-09-18T11:19:11;100269.41;;;24.74;100.00
7297;BME280;40758;54.038;11.684;2023-09-18T11:21:38;100272.06;;;24.70;100.00
7297;BME280;40758;54.038;11.684;2023-09-18T11:24:16;100274.34;;;24.42;100.00
7297;BME280;40758;54.038;11.684;2023-09-18T11:26:45;100268.88;;;24.28;100.00
7297;BME280;40758;54.038;11.684;2023-09-18T11:29:16;100264.16;;;24.20;100.00
7297;BME280;40758;54.038;11.684;2023-09-18T11:31:50;100264.00;;;24.25;100.00
7297;BME280;40758;54.038;11.684;2023-09-18T11:34:28;100269.84;;;24.15;100.00
7297;BME280;40758;54.038;11.684;2023-09-18T11:36:58;100246.09;;;23.83;100.00
7297;BME280;40758;54.038;11.684;2023-09-18T11:39:52;100241.84;;;23.77;100.00
7297;BME280;40758;54.038;11.684;2023-09-18T11:42:19;100231.75;;;23.81;100.00
7297;BME280;40758;54.038;11.684;2023-09-18T11:44:49;100252.84;;;23.91;100.00
7297;BME280;40758;54.038;11.684;2023-09-18T11:47:19;100241.59;;;24.04;100.00
7297;BME280;40758;54.038;11.684;2023-09-18T11:49:55;100247.84;;;24.19;100.00
7297;BME280;40758;54.038;11.684;2023-09-18T11:52:27;100238.34;;;24.02;100.00
7297;BME280;40758;54.038;11.684;2023-09-18T11:54:56;100247.31;;;24.16;100.00
7297;BME280;40758;54.038;11.684;2023-09-18T11:57:23;100243.09;;;24.28;100.00
7297;BME280;40758;54.038;11.684;2023-09-18T11:59:51;100254.75;;;24.47;100.00
7297;BME280;40758;54.038;11.684;2023-09-18T12:02:29;100258.66;;;24.37;100.00
7297;BME280;40758;54.038;11.684;2023-09-18T12:05:21;100261.28;;;24.42;100.00
7297;BME280;40758;54.038;11.684;2023-09-18T12:07:54;100275.63;;;24.62;100.00
7297;BME280;40758;54.038;11.684;2023-09-18T12:10:23;100261.53;;;25.19;100.00
7297;BME280;40758;54.038;11.684;2023-09-18T12:12:49;100256.78;;;25.19;100.00
7297;BME280;40758;54.038;11.684;2023-09-18T12:15:18;100269.22;;;25.13;100.00
7297;BME280;40758;54.038;11.684;2023-09-18T12:17:46;100265.50;;;24.66;100.00
7297;BME280;40758;54.038;11.684;2023-09-18T12:20:17;100255.88;;;24.46;100.00
7297;BME280;40758;54.038;11.684;2023-09-18T12:22:50;100261.03;;;24.13;100.00
7297;BME280;40758;54.038;11.684;2023-09-18T12:25:17;100240.13;;;23.98;100.00
7297;BME280;40758;54.038;11.684;2023-09-18T12:27:53;100238.59;;;23.66;100.00
7297;BME280;40758;54.038;11.684;2023-09-18T12:30:21;100260.56;;;23.62;100.00
7297;BME280;40758;54.038;11.684;2023-09-18T12:32:51;100254.44;;;23.43;100.00
7297;BME280;40758;54.038;11.684;2023-09-18T12:35:18;100251.53;;;23.17;100.00
7297;BME280;40758;54.038;11.684;2023-09-18T12:37:45;100255.22;;;23.13;100.00
7297;BME280;40758;54.038;11.684;2023-09-18T12:40:29;100255.13;;;22.95;100.00
7297;BME280;40758;54.038;11.684;2023-09-18T12:42:57;100265.91;;;22.97;100.00
7297;BME280;40758;54.038;11.684;2023-09-18T12:45:25;100275.38;;;22.82;100.00
7297;BME280;40758;54.038;11.684;2023-09-18T12:47:55;100261.28;;;22.70;100.00
7297;BME280;40758;54.038;11.684;2023-09-18T12:50:23;100293.22;;;22.76;100.00
7297;BME280;40758;54.038;11.684;2023-09-18T12:52:49;100280.66;;;22.70;100.00